Weather at Edward F Knapp State Airport

Public forecast

Using degrees Fahrenheit for public forecast. Weather courtesy of forecast.io.

Current aviation weather report (METAR) for Edward F Knapp State Airport

2024/07/25 09:27 (retrieved 11 minutes ago)

KMPV 250927Z AUTO VRB03KT 10SM BKN007 19/17 A3004 RMK AO2 T01890172

Aviation forecast (TAF) for Edward F Knapp State Airport

2024/07/25 06:33 (retrieved 3 hours ago)

TAF KMPV 250530Z 2506/2606 17006KT P6SM OVC012 TEMPO 2509/2512 3SM BR OVC009 FM251300 21005KT P6SM SCT020 FM251500 23006KT P6SM SCT035 FM252000 28010G17KT P6SM VCSH SCT070 FM260200 29007KT P6SM SCT025